Pangborn Memorial Airport
KEAT : now visible

Airfield :











YOU CAN JOIN US ON...

 
LOGIN :

Register | Disclaimer

   EN    FR    IT 

 









Legend :    VFR   Marginal VFR   IFR   Intensive IFR   Very Intensive IFR
Visi :
Ceiling :
>= 8 km
>= 3000ft
5 to 8 km
1000 to 3000 ft
1500m to 5 km
500 to 1000 ft
800 to 1500m
200 to 500 ft
< 800m
< 200 ft
Symbols :   Thunderstorms  Fog  Heavy snow  Heavy precipitations  Wind > 20 kt






- Airport Elevation : 1249 ft


KEAT - Pangborn Memorial

CURRENT METAR :
  • 031155Z AUTO 28006KT 10SM CLR 21/11 A3004 RMK AO2 SLP162 T02110111 10283 20211 52004 $

EXPIRED METARs :
  • 031055Z AUTO 29012KT 10SM CLR 23/11 A3004 RMK AO2 SLP160 T02330111 $
  • 030955Z AUTO 28006KT 10SM CLR 24/11 A3003 RMK AO2 SLP158 T02440111 $

TAF KEAT
Valid from the 03 at 12:00 until the 04 at 12:00 UTC


031120Z 0312/0412 28007KT P6SM SCT250
FM032100 18008G15KT 6SM HZ FEW120
FM040000 30014G21KT P6SM BKN250
PROB30 0400/0406 P6SM TS BKN050CB
FM040600 31012KT P6SM SCT050
KZSE FIR / North America



MET'MAP, your aeronautical weather chart ! - Copyright ORBIFLY December 2007 - Disclaimer

ORBIFLY MET'MAP TEAM :

Programming & Development : Alexandra Zaïnal
Concept & original design : Baudouin d'Aumeries
Assistance for programming : Marc-Olivier Méhu
Technical & hardware support : Manuel Goepfert

Contact : metmap@orbifly.com




SOURCES & CREDITS :

   NOAA       Earth
Advisory